sensor_id;sensor_type;location;lat;lon;timestamp;pressure;altitude;pressure_sealevel;temperature;humidity
46718;BME280;32448;44.960;-0.698;2024-01-30T00:01:48;102670.25;;;9.40;100.00
46718;BME280;32448;44.960;-0.698;2024-01-30T00:04:15;102710.22;;;9.55;100.00
46718;BME280;32448;44.960;-0.698;2024-01-30T00:06:46;102711.19;;;9.57;100.00
46718;BME280;32448;44.960;-0.698;2024-01-30T00:09:13;102688.78;;;9.44;100.00
46718;BME280;32448;44.960;-0.698;2024-01-30T00:11:40;102726.25;;;9.63;100.00
46718;BME280;32448;44.960;-0.698;2024-01-30T00:14:07;102709.00;;;9.48;100.00
46718;BME280;32448;44.960;-0.698;2024-01-30T00:16:33;102722.97;;;9.49;100.00
46718;BME280;32448;44.960;-0.698;2024-01-30T00:19:00;102713.34;;;9.48;100.00
46718;BME280;32448;44.960;-0.698;2024-01-30T00:21:29;102718.38;;;9.45;100.00
46718;BME280;32448;44.960;-0.698;2024-01-30T00:23:56;102702.34;;;9.37;100.00
46718;BME280;32448;44.960;-0.698;2024-01-30T00:26:22;102684.31;;;9.26;100.00
46718;BME280;32448;44.960;-0.698;2024-01-30T00:28:49;102726.53;;;9.51;100.00
46718;BME280;32448;44.960;-0.698;2024-01-30T00:31:16;102736.16;;;9.52;100.00
46718;BME280;32448;44.960;-0.698;2024-01-30T00:33:43;102735.66;;;9.43;100.00
46718;BME280;32448;44.960;-0.698;2024-01-30T00:36:10;102718.81;;;9.36;100.00
46718;BME280;32448;44.960;-0.698;2024-01-30T00:38:37;102739.75;;;9.54;100.00
46718;BME280;32448;44.960;-0.698;2024-01-30T00:41:04;102736.00;;;9.49;100.00
46718;BME280;32448;44.960;-0.698;2024-01-30T00:43:31;102745.47;;;9.47;100.00
46718;BME280;32448;44.960;-0.698;2024-01-30T00:45:59;102709.66;;;9.28;100.00
46718;BME280;32448;44.960;-0.698;2024-01-30T00:48:26;102730.28;;;9.40;100.00
46718;BME280;32448;44.960;-0.698;2024-01-30T00:50:52;102713.91;;;9.26;100.00
46718;BME280;32448;44.960;-0.698;2024-01-30T00:53:19;102730.06;;;9.35;100.00
46718;BME280;32448;44.960;-0.698;2024-01-30T00:55:46;102718.63;;;9.33;100.00
46718;BME280;32448;44.960;-0.698;2024-01-30T00:58:13;102745.47;;;9.47;100.00
46718;BME280;32448;44.960;-0.698;2024-01-30T01:00:40;102733.78;;;9.40;100.00
46718;BME280;32448;44.960;-0.698;2024-01-30T01:03:06;102733.69;;;9.39;100.00
46718;BME280;32448;44.960;-0.698;2024-01-30T01:05:34;102744.31;;;9.42;100.00
46718;BME280;32448;44.960;-0.698;2024-01-30T01:08:01;102708.34;;;9.20;100.00
46718;BME280;32448;44.960;-0.698;2024-01-30T01:10:27;102751.03;;;9.37;100.00
46718;BME280;32448;44.960;-0.698;2024-01-30T01:12:55;102740.22;;;9.31;100.00
46718;BME280;32448;44.960;-0.698;2024-01-30T01:15:22;102737.53;;;9.29;100.00
46718;BME280;32448;44.960;-0.698;2024-01-30T01:17:50;102738.63;;;9.33;100.00
46718;BME280;32448;44.960;-0.698;2024-01-30T01:20:17;102718.38;;;9.29;100.00
46718;BME280;32448;44.960;-0.698;2024-01-30T01:22:43;102737.72;;;9.32;100.00
46718;BME280;32448;44.960;-0.698;2024-01-30T01:25:10;102729.56;;;9.26;100.00
46718;BME280;32448;44.960;-0.698;2024-01-30T01:27:37;102708.94;;;9.15;100.00
46718;BME280;32448;44.960;-0.698;2024-01-30T01:30:09;102695.72;;;9.11;100.00
46718;BME280;32448;44.960;-0.698;2024-01-30T01:32:36;102734.53;;;9.38;100.00
46718;BME280;32448;44.960;-0.698;2024-01-30T01:35:04;102737.78;;;9.34;100.00
46718;BME280;32448;44.960;-0.698;2024-01-30T01:37:34;102734.88;;;9.28;100.00
46718;BME280;32448;44.960;-0.698;2024-01-30T01:40:01;102734.78;;;9.26;100.00
46718;BME280;32448;44.960;-0.698;2024-01-30T01:42:28;102718.47;;;9.14;100.00
46718;BME280;32448;44.960;-0.698;2024-01-30T01:44:55;102744.25;;;9.24;100.00
46718;BME280;32448;44.960;-0.698;2024-01-30T01:47:22;102743.25;;;9.22;100.00
46718;BME280;32448;44.960;-0.698;2024-01-30T01:49:49;102740.47;;;9.19;100.00
46718;BME280;32448;44.960;-0.698;2024-01-30T01:52:16;102739.56;;;9.19;100.00
46718;BME280;32448;44.960;-0.698;2024-01-30T01:54:43;102744.66;;;9.16;100.00
46718;BME280;32448;44.960;-0.698;2024-01-30T01:57:10;102746.34;;;9.15;100.00
46718;BME280;32448;44.960;-0.698;2024-01-30T01:59:37;102724.47;;;8.97;100.00
46718;BME280;32448;44.960;-0.698;2024-01-30T02:02:07;102726.03;;;8.93;100.00
46718;BME280;32448;44.960;-0.698;2024-01-30T02:04:37;102723.47;;;8.95;100.00
46718;BME280;32448;44.960;-0.698;2024-01-30T02:07:04;102730.34;;;8.93;100.00
46718;BME280;32448;44.960;-0.698;2024-01-30T02:09:31;102732.69;;;8.88;100.00
46718;BME280;32448;44.960;-0.698;2024-01-30T02:11:58;102746.00;;;8.93;100.00
46718;BME280;32448;44.960;-0.698;2024-01-30T02:14:25;102746.53;;;8.87;100.00
46718;BME280;32448;44.960;-0.698;2024-01-30T02:16:56;102712.34;;;8.66;100.00
46718;BME280;32448;44.960;-0.698;2024-01-30T02:19:23;102752.41;;;8.83;100.00
46718;BME280;32448;44.960;-0.698;2024-01-30T02:21:50;102756.75;;;8.83;100.00
46718;BME280;32448;44.960;-0.698;2024-01-30T02:24:17;102754.66;;;8.77;100.00
46718;BME280;32448;44.960;-0.698;2024-01-30T02:26:44;102759.97;;;8.79;100.00
46718;BME280;32448;44.960;-0.698;2024-01-30T02:29:10;102756.38;;;8.76;100.00
46718;BME280;32448;44.960;-0.698;2024-01-30T02:31:37;102751.97;;;8.75;100.00
46718;BME280;32448;44.960;-0.698;2024-01-30T02:34:04;102768.59;;;8.77;100.00
46718;BME280;32448;44.960;-0.698;2024-01-30T02:36:31;102748.03;;;8.67;100.00
46718;BME280;32448;44.960;-0.698;2024-01-30T02:38:57;102757.66;;;8.68;100.00
46718;BME280;32448;44.960;-0.698;2024-01-30T02:41:24;102761.00;;;8.66;100.00
46718;BME280;32448;44.960;-0.698;2024-01-30T02:43:51;102754.78;;;8.64;100.00
46718;BME280;32448;44.960;-0.698;2024-01-30T02:46:18;102742.75;;;8.51;100.00
46718;BME280;32448;44.960;-0.698;2024-01-30T02:48:45;102745.66;;;8.56;100.00
46718;BME280;32448;44.960;-0.698;2024-01-30T02:51:12;102740.81;;;8.47;100.00
46718;BME280;32448;44.960;-0.698;2024-01-30T02:53:38;102752.56;;;8.55;100.00
46718;BME280;32448;44.960;-0.698;2024-01-30T02:56:05;102758.69;;;8.56;100.00
46718;BME280;32448;44.960;-0.698;2024-01-30T02:58:36;102751.44;;;8.50;100.00
46718;BME280;32448;44.960;-0.698;2024-01-30T03:01:03;102741.53;;;8.45;100.00
46718;BME280;32448;44.960;-0.698;2024-01-30T03:03:30;102729.69;;;8.35;100.00
46718;BME280;32448;44.960;-0.698;2024-01-30T03:05:57;102757.59;;;8.52;100.00
46718;BME280;32448;44.960;-0.698;2024-01-30T03:08:24;102726.09;;;8.33;100.00
46718;BME280;32448;44.960;-0.698;2024-01-30T03:10:50;102733.28;;;8.37;100.00
46718;BME280;32448;44.960;-0.698;2024-01-30T03:13:17;102765.25;;;8.49;100.00
46718;BME280;32448;44.960;-0.698;2024-01-30T03:15:44;102771.63;;;8.54;100.00
46718;BME280;32448;44.960;-0.698;2024-01-30T03:18:11;102739.03;;;8.31;100.00
46718;BME280;32448;44.960;-0.698;2024-01-30T03:20:38;102773.97;;;8.50;100.00
46718;BME280;32448;44.960;-0.698;2024-01-30T03:23:05;102744.34;;;8.33;100.00
46718;BME280;32448;44.960;-0.698;2024-01-30T03:25:34;102763.91;;;8.41;100.00
46718;BME280;32448;44.960;-0.698;2024-01-30T03:28:01;102769.91;;;8.40;100.00
46718;BME280;32448;44.960;-0.698;2024-01-30T03:30:28;102753.56;;;8.28;100.00
46718;BME280;32448;44.960;-0.698;2024-01-30T03:32:55;102751.88;;;8.28;100.00
46718;BME280;32448;44.960;-0.698;2024-01-30T03:35:21;102741.97;;;8.23;100.00
46718;BME280;32448;44.960;-0.698;2024-01-30T03:37:48;102771.56;;;8.38;100.00
46718;BME280;32448;44.960;-0.698;2024-01-30T03:40:15;102764.00;;;8.28;100.00
46718;BME280;32448;44.960;-0.698;2024-01-30T03:42:42;102768.78;;;8.35;100.00
46718;BME280;32448;44.960;-0.698;2024-01-30T03:45:09;102777.41;;;8.34;100.00
46718;BME280;32448;44.960;-0.698;2024-01-30T03:47:36;102741.63;;;8.17;100.00
46718;BME280;32448;44.960;-0.698;2024-01-30T03:50:03;102780.09;;;8.35;100.00
46718;BME280;32448;44.960;-0.698;2024-01-30T03:52:31;102755.09;;;8.24;100.00
46718;BME280;32448;44.960;-0.698;2024-01-30T03:54:58;102768.47;;;8.30;100.00
46718;BME280;32448;44.960;-0.698;2024-01-30T03:57:25;102745.66;;;8.12;100.00
46718;BME280;32448;44.960;-0.698;2024-01-30T03:59:51;102782.22;;;8.28;100.00
46718;BME280;32448;44.960;-0.698;2024-01-30T04:02:18;102766.13;;;8.20;100.00
46718;BME280;32448;44.960;-0.698;2024-01-30T04:04:45;102748.81;;;8.06;100.00
46718;BME280;32448;44.960;-0.698;2024-01-30T04:07:13;102758.06;;;8.16;100.00
46718;BME280;32448;44.960;-0.698;2024-01-30T04:09:40;102773.84;;;8.19;100.00
46718;BME280;32448;44.960;-0.698;2024-01-30T04:12:07;102764.88;;;8.14;100.00
46718;BME280;32448;44.960;-0.698;2024-01-30T04:14:33;102773.94;;;8.20;100.00
46718;BME280;32448;44.960;-0.698;2024-01-30T04:17:02;102789.75;;;8.23;100.00
46718;BME280;32448;44.960;-0.698;2024-01-30T04:19:28;102795.97;;;8.25;100.00
46718;BME280;32448;44.960;-0.698;2024-01-30T04:21:55;102796.16;;;8.28;100.00
46718;BME280;32448;44.960;-0.698;2024-01-30T04:24:22;102785.34;;;8.22;100.00
46718;BME280;32448;44.960;-0.698;2024-01-30T04:26:49;102781.84;;;8.22;100.00
46718;BME280;32448;44.960;-0.698;2024-01-30T04:29:16;102795.97;;;8.25;100.00
46718;BME280;32448;44.960;-0.698;2024-01-30T04:31:42;102772.06;;;8.18;100.00
46718;BME280;32448;44.960;-0.698;2024-01-30T04:34:09;102791.66;;;8.26;100.00
46718;BME280;32448;44.960;-0.698;2024-01-30T04:36:36;102753.66;;;8.00;100.00
46718;BME280;32448;44.960;-0.698;2024-01-30T04:39:03;102768.00;;;8.08;100.00
46718;BME280;32448;44.960;-0.698;2024-01-30T04:41:30;102804.50;;;8.23;100.00
46718;BME280;32448;44.960;-0.698;2024-01-30T04:43:58;102798.03;;;8.16;100.00
46718;BME280;32448;44.960;-0.698;2024-01-30T04:46:25;102804.06;;;8.15;100.00
46718;BME280;32448;44.960;-0.698;2024-01-30T04:48:52;102783.63;;;8.08;100.00
46718;BME280;32448;44.960;-0.698;2024-01-30T04:51:19;102789.59;;;8.06;100.00
46718;BME280;32448;44.960;-0.698;2024-01-30T04:53:46;102769.63;;;7.91;100.00
46718;BME280;32448;44.960;-0.698;2024-01-30T04:56:13;102752.56;;;7.82;100.00
46718;BME280;32448;44.960;-0.698;2024-01-30T04:58:40;102791.63;;;7.96;100.00
46718;BME280;32448;44.960;-0.698;2024-01-30T05:01:06;102788.66;;;7.90;100.00
46718;BME280;32448;44.960;-0.698;2024-01-30T05:03:34;102799.78;;;7.88;100.00
46718;BME280;32448;44.960;-0.698;2024-01-30T05:06:01;102763.66;;;7.64;100.00
46718;BME280;32448;44.960;-0.698;2024-01-30T05:08:28;102791.13;;;7.74;100.00
46718;BME280;32448;44.960;-0.698;2024-01-30T05:10:55;102791.97;;;7.73;100.00
46718;BME280;32448;44.960;-0.698;2024-01-30T05:13:22;102788.38;;;7.71;100.00
46718;BME280;32448;44.960;-0.698;2024-01-30T05:15:49;102799.94;;;7.76;100.00
46718;BME280;32448;44.960;-0.698;2024-01-30T05:18:16;102802.44;;;7.75;100.00
46718;BME280;32448;44.960;-0.698;2024-01-30T05:20:43;102782.41;;;7.59;100.00
46718;BME280;32448;44.960;-0.698;2024-01-30T05:23:09;102799.28;;;7.65;100.00
46718;BME280;32448;44.960;-0.698;2024-01-30T05:25:36;102820.31;;;7.68;100.00
46718;BME280;32448;44.960;-0.698;2024-01-30T05:28:03;102783.47;;;7.48;100.00
46718;BME280;32448;44.960;-0.698;2024-01-30T05:30:31;102813.00;;;7.63;100.00
46718;BME280;32448;44.960;-0.698;2024-01-30T05:32:58;102819.13;;;7.63;100.00
46718;BME280;32448;44.960;-0.698;2024-01-30T05:35:25;102824.31;;;7.63;100.00
46718;BME280;32448;44.960;-0.698;2024-01-30T05:37:52;102829.34;;;7.60;100.00
46718;BME280;32448;44.960;-0.698;2024-01-30T05:40:18;102815.16;;;7.55;100.00
46718;BME280;32448;44.960;-0.698;2024-01-30T05:42:45;102822.16;;;7.56;100.00
46718;BME280;32448;44.960;-0.698;2024-01-30T05:45:12;102832.84;;;7.61;100.00
46718;BME280;32448;44.960;-0.698;2024-01-30T05:47:41;102839.78;;;7.60;100.00
46718;BME280;32448;44.960;-0.698;2024-01-30T05:50:08;102835.16;;;7.56;100.00
46718;BME280;32448;44.960;-0.698;2024-01-30T05:52:34;102843.78;;;7.55;100.00
46718;BME280;32448;44.960;-0.698;2024-01-30T05:55:02;102844.31;;;7.50;100.00
46718;BME280;32448;44.960;-0.698;2024-01-30T05:57:29;102830.91;;;7.44;100.00
46718;BME280;32448;44.960;-0.698;2024-01-30T05:59:56;102853.06;;;7.52;100.00
46718;BME280;32448;44.960;-0.698;2024-01-30T06:02:23;102815.31;;;7.30;100.00
46718;BME280;32448;44.960;-0.698;2024-01-30T06:04:50;102850.09;;;7.46;100.00
46718;BME280;32448;44.960;-0.698;2024-01-30T06:07:17;102849.75;;;7.40;100.00
46718;BME280;32448;44.960;-0.698;2024-01-30T06:09:44;102849.44;;;7.35;100.00
46718;BME280;32448;44.960;-0.698;2024-01-30T06:12:13;102795.38;;;7.03;100.00
46718;BME280;32448;44.960;-0.698;2024-01-30T06:14:40;102839.06;;;7.22;100.00
46718;BME280;32448;44.960;-0.698;2024-01-30T06:17:12;102859.06;;;7.23;100.00
46718;BME280;32448;44.960;-0.698;2024-01-30T06:19:40;102854.44;;;7.19;100.00
46718;BME280;32448;44.960;-0.698;2024-01-30T06:22:09;102820.19;;;6.98;100.00
46718;BME280;32448;44.960;-0.698;2024-01-30T06:24:35;102838.97;;;7.07;100.00
46718;BME280;32448;44.960;-0.698;2024-01-30T06:27:02;102844.25;;;7.09;100.00
46718;BME280;32448;44.960;-0.698;2024-01-30T06:29:29;102813.00;;;6.81;100.00
46718;BME280;32448;44.960;-0.698;2024-01-30T06:31:56;102839.97;;;6.96;100.00
46718;BME280;32448;44.960;-0.698;2024-01-30T06:34:24;102811.81;;;6.76;100.00
46718;BME280;32448;44.960;-0.698;2024-01-30T06:36:53;102851.09;;;6.93;100.00
46718;BME280;32448;44.960;-0.698;2024-01-30T06:39:20;102855.56;;;6.96;100.00
46718;BME280;32448;44.960;-0.698;2024-01-30T06:41:47;102852.69;;;6.91;100.00
46718;BME280;32448;44.960;-0.698;2024-01-30T06:44:14;102820.69;;;6.66;100.00
46718;BME280;32448;44.960;-0.698;2024-01-30T06:46:41;102861.06;;;6.87;100.00
46718;BME280;32448;44.960;-0.698;2024-01-30T06:49:08;102835.97;;;6.75;100.00
46718;BME280;32448;44.960;-0.698;2024-01-30T06:51:35;102857.88;;;6.78;100.00
46718;BME280;32448;44.960;-0.698;2024-01-30T06:54:01;102805.28;;;6.43;100.00
46718;BME280;32448;44.960;-0.698;2024-01-30T06:56:28;102839.50;;;6.62;100.00
46718;BME280;32448;44.960;-0.698;2024-01-30T06:58:55;102831.06;;;6.53;100.00
46718;BME280;32448;44.960;-0.698;2024-01-30T07:01:27;102839.66;;;6.52;100.00
46718;BME280;32448;44.960;-0.698;2024-01-30T07:03:55;102862.78;;;6.61;100.00
46718;BME280;32448;44.960;-0.698;2024-01-30T07:06:22;102874.47;;;6.67;100.00
46718;BME280;32448;44.960;-0.698;2024-01-30T07:08:49;102869.84;;;6.63;100.00
46718;BME280;32448;44.960;-0.698;2024-01-30T07:11:20;102873.88;;;6.58;100.00
46718;BME280;32448;44.960;-0.698;2024-01-30T07:13:50;102863.56;;;6.46;100.00
46718;BME280;32448;44.960;-0.698;2024-01-30T07:16:17;102869.53;;;6.45;100.00
46718;BME280;32448;44.960;-0.698;2024-01-30T07:18:44;102876.44;;;6.45;100.00
46718;BME280;32448;44.960;-0.698;2024-01-30T07:21:11;102873.72;;;6.43;100.00
46718;BME280;32448;44.960;-0.698;2024-01-30T07:23:38;102877.72;;;6.38;100.00
46718;BME280;32448;44.960;-0.698;2024-01-30T07:26:05;102892.09;;;6.33;100.00
46718;BME280;32448;44.960;-0.698;2024-01-30T07:28:33;102894.56;;;6.32;100.00
46718;BME280;32448;44.960;-0.698;2024-01-30T07:31:01;102899.59;;;6.29;100.00
46718;BME280;32448;44.960;-0.698;2024-01-30T07:33:28;102898.69;;;6.28;100.00
46718;BME280;32448;44.960;-0.698;2024-01-30T07:35:55;102893.28;;;6.25;100.00
46718;BME280;32448;44.960;-0.698;2024-01-30T07:38:22;102894.19;;;6.26;100.00
46718;BME280;32448;44.960;-0.698;2024-01-30T07:40:49;102908.84;;;6.25;100.00
46718;BME280;32448;44.960;-0.698;2024-01-30T07:43:16;102914.94;;;6.26;100.00
46718;BME280;32448;44.960;-0.698;2024-01-30T07:45:43;102914.44;;;6.31;100.00
46718;BME280;32448;44.960;-0.698;2024-01-30T07:48:10;102919.47;;;6.28;100.00
46718;BME280;32448;44.960;-0.698;2024-01-30T07:50:37;102917.31;;;6.22;100.00
46718;BME280;32448;44.960;-0.698;2024-01-30T07:53:04;102921.50;;;6.20;100.00
46718;BME280;32448;44.960;-0.698;2024-01-30T07:55:31;102930.09;;;6.19;100.00
46718;BME280;32448;44.960;-0.698;2024-01-30T07:57:59;102937.31;;;6.24;100.00
46718;BME280;32448;44.960;-0.698;2024-01-30T08:00:27;102939.69;;;6.20;100.00
46718;BME280;32448;44.960;-0.698;2024-01-30T08:02:56;102938.00;;;6.21;100.00
46718;BME280;32448;44.960;-0.698;2024-01-30T08:05:23;102937.47;;;6.13;100.00
46718;BME280;32448;44.960;-0.698;2024-01-30T08:07:51;102945.38;;;6.15;100.00
46718;BME280;32448;44.960;-0.698;2024-01-30T08:10:18;102942.13;;;6.06;100.00
46718;BME280;32448;44.960;-0.698;2024-01-30T08:12:45;102940.22;;;6.03;100.00
46718;BME280;32448;44.960;-0.698;2024-01-30T08:15:12;102944.75;;;6.06;100.00
46718;BME280;32448;44.960;-0.698;2024-01-30T08:17:39;102946.63;;;6.08;100.00
46718;BME280;32448;44.960;-0.698;2024-01-30T08:20:07;102956.91;;;6.07;100.00
46718;BME280;32448;44.960;-0.698;2024-01-30T08:22:35;102951.91;;;6.10;100.00
46718;BME280;32448;44.960;-0.698;2024-01-30T08:25:02;102953.94;;;6.14;100.00
46718;BME280;32448;44.960;-0.698;2024-01-30T08:27:29;102960.56;;;6.22;100.00
46718;BME280;32448;44.960;-0.698;2024-01-30T08:29:56;102949.50;;;6.25;100.00
46718;BME280;32448;44.960;-0.698;2024-01-30T08:32:23;102955.22;;;6.32;100.00
46718;BME280;32448;44.960;-0.698;2024-01-30T08:34:50;102955.31;;;6.34;100.00
46718;BME280;32448;44.960;-0.698;2024-01-30T08:37:17;102944.13;;;6.35;100.00
46718;BME280;32448;44.960;-0.698;2024-01-30T08:39:44;102937.63;;;6.28;100.00
46718;BME280;32448;44.960;-0.698;2024-01-30T08:42:11;102952.16;;;6.38;100.00
46718;BME280;32448;44.960;-0.698;2024-01-30T08:44:38;102959.44;;;6.43;100.00
46718;BME280;32448;44.960;-0.698;2024-01-30T08:47:05;102957.06;;;6.46;100.00
46718;BME280;32448;44.960;-0.698;2024-01-30T08:49:32;102955.47;;;6.48;100.00
46718;BME280;32448;44.960;-0.698;2024-01-30T08:51:59;102968.69;;;6.65;100.00
46718;BME280;32448;44.960;-0.698;2024-01-30T08:54:26;102982.06;;;6.82;100.00
46718;BME280;32448;44.960;-0.698;2024-01-30T08:56:53;102965.44;;;6.80;100.00
46718;BME280;32448;44.960;-0.698;2024-01-30T08:59:22;102964.88;;;6.84;100.00
46718;BME280;32448;44.960;-0.698;2024-01-30T09:01:48;102980.69;;;7.01;100.00
46718;BME280;32448;44.960;-0.698;2024-01-30T09:04:29;102986.13;;;7.17;100.00
46718;BME280;32448;44.960;-0.698;2024-01-30T09:06:56;102991.69;;;7.23;100.00
46718;BME280;32448;44.960;-0.698;2024-01-30T09:09:23;102988.69;;;7.30;100.00
46718;BME280;32448;44.960;-0.698;2024-01-30T09:11:50;102993.78;;;7.42;100.00
46718;BME280;32448;44.960;-0.698;2024-01-30T09:14:17;102992.63;;;7.50;100.00
46718;BME280;32448;44.960;-0.698;2024-01-30T09:16:44;102952.00;;;7.39;100.00
46718;BME280;32448;44.960;-0.698;2024-01-30T09:19:10;102996.06;;;7.77;100.00
46718;BME280;32448;44.960;-0.698;2024-01-30T09:21:38;102993.56;;;7.78;100.00
46718;BME280;32448;44.960;-0.698;2024-01-30T09:24:05;102980.75;;;7.81;100.00
46718;BME280;32448;44.960;-0.698;2024-01-30T09:26:32;102991.94;;;7.93;100.00
46718;BME280;32448;44.960;-0.698;2024-01-30T09:28:59;102997.53;;;7.99;100.00
46718;BME280;32448;44.960;-0.698;2024-01-30T09:31:25;103001.38;;;8.19;100.00
46718;BME280;32448;44.960;-0.698;2024-01-30T09:33:52;102998.75;;;8.32;100.00
46718;BME280;32448;44.960;-0.698;2024-01-30T09:36:21;103011.09;;;8.35;100.00
46718;BME280;32448;44.960;-0.698;2024-01-30T09:38:48;103007.69;;;8.36;100.00
46718;BME280;32448;44.960;-0.698;2024-01-30T09:41:15;103000.78;;;8.51;100.00
46718;BME280;32448;44.960;-0.698;2024-01-30T09:43:47;103010.25;;;8.64;100.00
46718;BME280;32448;44.960;-0.698;2024-01-30T09:46:17;103002.56;;;8.80;100.00
46718;BME280;32448;44.960;-0.698;2024-01-30T09:48:47;102998.41;;;8.84;100.00
46718;BME280;32448;44.960;-0.698;2024-01-30T09:51:16;103009.13;;;8.88;100.00
46718;BME280;32448;44.960;-0.698;2024-01-30T09:53:44;102996.28;;;8.91;100.00
46718;BME280;32448;44.960;-0.698;2024-01-30T09:56:12;102977.09;;;8.76;100.00
46718;BME280;32448;44.960;-0.698;2024-01-30T09:58:39;103018.56;;;9.01;100.00
46718;BME280;32448;44.960;-0.698;2024-01-30T10:01:06;102993.19;;;8.98;100.00
46718;BME280;32448;44.960;-0.698;2024-01-30T10:03:33;103000.13;;;9.12;100.00
46718;BME280;32448;44.960;-0.698;2024-01-30T10:06:01;103002.00;;;9.30;100.00
46718;BME280;32448;44.960;-0.698;2024-01-30T10:08:28;103008.44;;;9.51;100.00
46718;BME280;32448;44.960;-0.698;2024-01-30T10:10:56;103010.03;;;9.64;100.00
46718;BME280;32448;44.960;-0.698;2024-01-30T10:13:25;103005.41;;;9.58;100.00
46718;BME280;32448;44.960;-0.698;2024-01-30T10:15:52;103006.09;;;9.70;100.00
46718;BME280;32448;44.960;-0.698;2024-01-30T10:18:19;103015.16;;;9.77;100.00
46718;BME280;32448;44.960;-0.698;2024-01-30T10:20:46;103004.16;;;9.82;100.00
46718;BME280;32448;44.960;-0.698;2024-01-30T10:23:13;102968.94;;;9.76;100.00
46718;BME280;32448;44.960;-0.698;2024-01-30T10:25:40;102996.19;;;10.12;100.00
46718;BME280;32448;44.960;-0.698;2024-01-30T10:28:07;103009.28;;;10.12;100.00
46718;BME280;32448;44.960;-0.698;2024-01-30T10:30:34;103004.31;;;10.33;100.00
46718;BME280;32448;44.960;-0.698;2024-01-30T10:33:02;103007.34;;;10.40;100.00
46718;BME280;32448;44.960;-0.698;2024-01-30T10:35:29;103005.06;;;10.46;100.00
46718;BME280;32448;44.960;-0.698;2024-01-30T10:37:57;103007.91;;;10.51;100.00
46718;BME280;32448;44.960;-0.698;2024-01-30T10:40:28;103005.22;;;10.49;100.00
46718;BME280;32448;44.960;-0.698;2024-01-30T10:42:56;102989.47;;;10.48;100.00
46718;BME280;32448;44.960;-0.698;2024-01-30T10:45:25;103021.00;;;10.67;100.00
46718;BME280;32448;44.960;-0.698;2024-01-30T10:47:55;103007.31;;;10.73;100.00
46718;BME280;32448;44.960;-0.698;2024-01-30T10:50:25;102974.56;;;10.63;100.00
46718;BME280;32448;44.960;-0.698;2024-01-30T10:52:54;102999.97;;;10.82;100.00
46718;BME280;32448;44.960;-0.698;2024-01-30T10:55:21;103008.66;;;10.99;100.00
46718;BME280;32448;44.960;-0.698;2024-01-30T10:57:49;103001.72;;;10.99;100.00
46718;BME280;32448;44.960;-0.698;2024-01-30T11:00:17;103000.84;;;11.16;100.00
46718;BME280;32448;44.960;-0.698;2024-01-30T11:02:49;102999.53;;;11.24;100.00
46718;BME280;32448;44.960;-0.698;2024-01-30T11:05:23;102982.69;;;11.19;100.00
46718;BME280;32448;44.960;-0.698;2024-01-30T11:07:58;102956.06;;;11.10;100.00
46718;BME280;32448;44.960;-0.698;2024-01-30T11:10:25;102997.06;;;11.45;100.00
46718;BME280;32448;44.960;-0.698;2024-01-30T11:12:52;102970.84;;;11.63;100.00
46718;BME280;32448;44.960;-0.698;2024-01-30T11:15:19;102970.19;;;11.67;100.00
46718;BME280;32448;44.960;-0.698;2024-01-30T11:22:48;102972.06;;;11.87;100.00
46718;BME280;32448;44.960;-0.698;2024-01-30T11:25:17;102969.69;;;11.93;100.00
46718;BME280;32448;44.960;-0.698;2024-01-30T11:27:49;102971.81;;;12.00;100.00
46718;BME280;32448;44.960;-0.698;2024-01-30T11:33:12;102926.50;;;12.03;100.00
46718;BME280;32448;44.960;-0.698;2024-01-30T11:35:43;102957.03;;;12.22;100.00
46718;BME280;32448;44.960;-0.698;2024-01-30T11:38:14;102949.75;;;12.15;100.00
46718;BME280;32448;44.960;-0.698;2024-01-30T11:40:41;102958.91;;;12.24;100.00
46718;BME280;32448;44.960;-0.698;2024-01-30T11:43:09;102909.38;;;12.11;100.00
46718;BME280;32448;44.960;-0.698;2024-01-30T11:45:38;102962.81;;;12.53;100.00
46718;BME280;32448;44.960;-0.698;2024-01-30T11:48:06;102923.50;;;12.34;100.00
46718;BME280;32448;44.960;-0.698;2024-01-30T11:50:34;102943.63;;;12.54;100.00
46718;BME280;32448;44.960;-0.698;2024-01-30T11:53:02;102936.09;;;12.62;100.00
46718;BME280;32448;44.960;-0.698;2024-01-30T11:55:30;102911.19;;;12.52;100.00
46718;BME280;32448;44.960;-0.698;2024-01-30T11:58:02;102940.59;;;12.85;100.00
46718;BME280;32448;44.960;-0.698;2024-01-30T12:00:29;102925.94;;;12.90;100.00
46718;BME280;32448;44.960;-0.698;2024-01-30T12:02:58;102939.84;;;12.88;100.00
46718;BME280;32448;44.960;-0.698;2024-01-30T12:05:28;102939.84;;;12.88;100.00
46718;BME280;32448;44.960;-0.698;2024-01-30T12:07:55;102923.84;;;13.02;100.00
46718;BME280;32448;44.960;-0.698;2024-01-30T12:10:26;102927.22;;;13.00;100.00
46718;BME280;32448;44.960;-0.698;2024-01-30T12:12:54;102916.41;;;13.13;100.00
46718;BME280;32448;44.960;-0.698;2024-01-30T12:15:22;102891.03;;;12.93;100.00
46718;BME280;32448;44.960;-0.698;2024-01-30T12:17:49;102919.28;;;13.19;100.00
46718;BME280;32448;44.960;-0.698;2024-01-30T12:20:19;102924.69;;;13.22;100.00
46718;BME280;32448;44.960;-0.698;2024-01-30T12:22:49;102858.00;;;12.98;100.00
46718;BME280;32448;44.960;-0.698;2024-01-30T12:25:18;102912.13;;;13.37;100.00
46718;BME280;32448;44.960;-0.698;2024-01-30T12:27:50;102907.16;;;13.43;100.00
46718;BME280;32448;44.960;-0.698;2024-01-30T12:30:19;102878.84;;;13.36;100.00
46718;BME280;32448;44.960;-0.698;2024-01-30T12:32:50;102919.03;;;13.56;100.00
46718;BME280;32448;44.960;-0.698;2024-01-30T12:35:19;102910.19;;;13.54;100.00
46718;BME280;32448;44.960;-0.698;2024-01-30T12:37:48;102878.88;;;13.38;100.00
46718;BME280;32448;44.960;-0.698;2024-01-30T12:40:16;102898.06;;;13.80;100.00
46718;BME280;32448;44.960;-0.698;2024-01-30T12:42:46;102901.41;;;13.76;100.00
46718;BME280;32448;44.960;-0.698;2024-01-30T12:45:16;102898.50;;;13.92;100.00
46718;BME280;32448;44.960;-0.698;2024-01-30T12:47:47;102884.16;;;13.84;100.00